createdAt,value
2022-10-23T00:01:51.592Z,99562.14
2022-10-23T00:04:22.142Z,99567.91
2022-10-23T00:06:50.642Z,99562.16
2022-10-23T00:09:23.164Z,99555.95
2022-10-23T00:11:52.823Z,99556.05
2022-10-23T00:14:25.193Z,99564.25
2022-10-23T00:16:53.858Z,99561.02
2022-10-23T00:19:22.267Z,99557.42
2022-10-23T00:21:50.721Z,99549.68
2022-10-23T00:24:19.203Z,99543.46
2022-10-23T00:26:51.164Z,99542.54
2022-10-23T00:29:19.750Z,99555.02
2022-10-23T00:31:48.040Z,99561.17
2022-10-23T00:34:19.672Z,99567.90
2022-10-23T00:36:48.057Z,99572.10
2022-10-23T00:39:16.390Z,99574.98
2022-10-23T00:41:44.930Z,99566.23
2022-10-23T00:44:18.965Z,99557.91
2022-10-23T00:46:47.714Z,99562.44
2022-10-23T00:49:17.033Z,99571.77
2022-10-23T00:51:57.438Z,99583.89
2022-10-23T00:54:29.844Z,99598.31
2022-10-23T00:57:02.522Z,99604.82
2022-10-23T00:59:31.577Z,99615.81
2022-10-23T01:02:00.841Z,99623.54
2022-10-23T01:04:30.266Z,99624.59
2022-10-23T01:07:10.722Z,99622.65
2022-10-23T01:09:54.217Z,99620.29
2022-10-23T01:12:56.218Z,99623.92
2022-10-23T01:16:01.734Z,99627.41
2022-10-23T01:18:45.370Z,99627.42
2022-10-23T01:21:46.413Z,99628.21
2022-10-23T01:24:53.002Z,99625.84
2022-10-23T01:27:47.737Z,99626.95
2022-10-23T01:30:17.746Z,99621.34
2022-10-23T01:33:09.746Z,99621.67
2022-10-23T01:36:14.767Z,99621.80
2022-10-23T01:41:47.238Z,99626.64
2022-10-23T01:44:27.843Z,99628.77
2022-10-23T01:46:57.993Z,99629.19
2022-10-23T01:49:28.880Z,99633.48
2022-10-23T01:52:02.794Z,99637.97
2022-10-23T01:54:35.976Z,99641.85
2022-10-23T01:57:05.697Z,99647.06
2022-10-23T01:59:39.806Z,99648.13
2022-10-23T02:02:12.302Z,99648.77
2022-10-23T02:04:59.398Z,99648.13
2022-10-23T02:07:27.930Z,99655.49
2022-10-23T02:09:56.569Z,99652.23
2022-10-23T02:12:38.261Z,99654.09
2022-10-23T02:15:33.277Z,99657.14
2022-10-23T02:18:38.202Z,99655.39
2022-10-23T02:21:15.805Z,99659.08
2022-10-23T02:23:56.558Z,99664.09
2022-10-23T02:26:29.347Z,99671.83
2022-10-23T02:29:07.547Z,99670.61
2022-10-23T02:31:37.579Z,99671.20
2022-10-23T02:34:06.046Z,99669.68
2022-10-23T02:36:34.420Z,99671.96
2022-10-23T02:39:04.800Z,99679.43
2022-10-23T02:41:56.398Z,99681.45
2022-10-23T02:45:05.293Z,99679.83
2022-10-23T02:48:13.525Z,99687.25
2022-10-23T02:51:02.949Z,99691.67
2022-10-23T02:54:16.413Z,99691.96
2022-10-23T02:57:10.449Z,99691.27
2022-10-23T02:59:47.903Z,99701.48
2022-10-23T03:02:33.455Z,99704.92
2022-10-23T03:05:04.920Z,99713.80
2022-10-23T03:07:34.854Z,99717.84
2022-10-23T03:10:09.557Z,99717.13
2022-10-23T03:12:38.883Z,99718.02
2022-10-23T03:15:08.625Z,99729.11
2022-10-23T03:17:37.262Z,99729.46
2022-10-23T03:20:07.977Z,99730.60
2022-10-23T03:22:37.716Z,99732.26
2022-10-23T03:25:07.439Z,99735.52
2022-10-23T03:27:37.546Z,99738.22
2022-10-23T03:30:08.678Z,99746.77
2022-10-23T03:32:38.484Z,99748.05
2022-10-23T03:35:08.225Z,99748.52
2022-10-23T03:37:36.589Z,99750.15
2022-10-23T03:40:06.580Z,99756.61
2022-10-23T03:42:36.109Z,99767.42
2022-10-23T03:45:06.023Z,99767.02
2022-10-23T03:47:35.716Z,99768.40
2022-10-23T03:50:05.274Z,99770.45
2022-10-23T03:52:34.430Z,99772.86
2022-10-23T03:55:03.101Z,99777.77
2022-10-23T03:57:31.689Z,99779.95
2022-10-23T04:00:00.092Z,99782.98
2022-10-23T04:02:31.102Z,99786.63
2022-10-23T04:04:59.399Z,99789.48
2022-10-23T04:07:29.518Z,99787.60
2022-10-23T04:10:00.906Z,99791.64
2022-10-23T04:12:29.656Z,99794.66
2022-10-23T04:14:58.012Z,99794.07
2022-10-23T04:20:00.406Z,99800.80
2022-10-23T04:22:29.111Z,99800.95
2022-10-23T04:24:57.485Z,99802.88
2022-10-23T04:27:25.850Z,99809.11
2022-10-23T04:29:56.816Z,99808.63
2022-10-23T04:32:28.541Z,99810.07
2022-10-23T04:34:58.170Z,99812.61
2022-10-23T04:37:26.838Z,99813.23
2022-10-23T04:39:55.231Z,99817.27
2022-10-23T04:42:23.620Z,99817.86
2022-10-23T04:44:52.499Z,99820.85
2022-10-23T04:47:21.017Z,99823.46
2022-10-23T04:49:58.756Z,99826.67
2022-10-23T04:52:45.971Z,99828.19
2022-10-23T04:55:58.397Z,99828.38
2022-10-23T04:59:16.350Z,99828.15
2022-10-23T05:01:45.310Z,99825.48
2022-10-23T05:04:15.052Z,99830.08
2022-10-23T05:07:02.272Z,99838.23
2022-10-23T05:09:48.368Z,99843.59
2022-10-23T05:12:57.705Z,99847.15
2022-10-23T05:15:26.274Z,99848.81
2022-10-23T05:18:08.842Z,99849.36
2022-10-23T05:20:39.313Z,99854.13
2022-10-23T05:23:13.848Z,99861.67
2022-10-23T05:25:45.585Z,99862.80
2022-10-23T05:28:17.448Z,99866.08
2022-10-23T05:30:46.195Z,99869.00
2022-10-23T05:33:15.065Z,99869.79
2022-10-23T05:35:45.553Z,99877.11
2022-10-23T05:38:16.754Z,99878.00
2022-10-23T05:40:45.505Z,99880.45
2022-10-23T05:43:19.616Z,99880.20
2022-10-23T05:45:51.372Z,99883.21
2022-10-23T05:48:34.279Z,99880.09
2022-10-23T05:51:22.405Z,99884.89
2022-10-23T05:53:59.517Z,99883.22
2022-10-23T05:56:41.819Z,99888.08
2022-10-23T05:59:34.467Z,99896.23
2022-10-23T06:02:21.095Z,99901.60
2022-10-23T06:04:53.264Z,99903.69
2022-10-23T06:08:08.415Z,99905.23
2022-10-23T06:10:37.101Z,99906.94
2022-10-23T06:13:07.428Z,99905.46
2022-10-23T06:15:35.907Z,99904.10
2022-10-23T06:18:15.749Z,99904.80
2022-10-23T06:20:57.445Z,99906.17
2022-10-23T06:23:27.648Z,99904.10
2022-10-23T06:26:16.841Z,99905.67
2022-10-23T06:29:04.050Z,99909.04
2022-10-23T06:31:33.030Z,99912.60
2022-10-23T06:34:01.401Z,99910.34
2022-10-23T06:36:31.530Z,99912.47
2022-10-23T06:39:43.385Z,99922.53
2022-10-23T06:42:16.017Z,99917.80
2022-10-23T06:44:57.648Z,99923.81
2022-10-23T06:47:44.750Z,99923.30
2022-10-23T06:50:31.634Z,99924.94
2022-10-23T06:53:01.230Z,99922.25
2022-10-23T06:55:30.546Z,99922.53
2022-10-23T06:57:59.616Z,99922.58
2022-10-23T07:00:28.074Z,99923.02
2022-10-23T07:02:57.323Z,99925.60
2022-10-23T07:05:26.718Z,99923.50
2022-10-23T07:07:55.098Z,99931.50
2022-10-23T07:10:26.855Z,99929.45
2022-10-23T07:13:01.363Z,99931.91
2022-10-23T07:15:49.793Z,99939.80
2022-10-23T07:18:24.418Z,99942.21
2022-10-23T07:21:35.408Z,99938.44
2022-10-23T07:24:31.657Z,99945.84
2022-10-23T07:27:01.573Z,99946.08
2022-10-23T07:29:31.061Z,99946.54
2022-10-23T07:32:04.669Z,99948.76
2022-10-23T07:35:06.703Z,99949.18
2022-10-23T07:37:36.342Z,99948.89
2022-10-23T07:40:06.969Z,99950.23
2022-10-23T07:42:39.766Z,99955.00
2022-10-23T07:45:10.144Z,99964.20
2022-10-23T07:47:39.928Z,99964.27
2022-10-23T07:50:10.105Z,99968.20
2022-10-23T07:52:38.894Z,99972.95
2022-10-23T07:55:14.853Z,99975.79
2022-10-23T07:57:52.313Z,99976.65
2022-10-23T08:01:32.241Z,99974.93
2022-10-23T08:04:01.198Z,99974.78
2022-10-23T08:06:30.121Z,99972.80
2022-10-23T08:08:59.984Z,99975.95
2022-10-23T08:11:35.882Z,99976.83
2022-10-23T08:14:08.477Z,99977.21
2022-10-23T08:16:38.935Z,99978.04
2022-10-23T08:19:27.212Z,99984.99
2022-10-23T08:21:57.418Z,99982.02
2022-10-23T08:24:25.998Z,99987.66
2022-10-23T08:26:54.387Z,99988.57
2022-10-23T08:29:24.515Z,99993.34
2022-10-23T08:31:56.681Z,99989.90
2022-10-23T08:35:08.406Z,99993.52
2022-10-23T08:37:37.881Z,99997.18
2022-10-23T08:40:07.705Z,99996.70
2022-10-23T08:43:47.330Z,100002.62
2022-10-23T08:46:31.987Z,100001.09
2022-10-23T08:50:14.375Z,100010.98
2022-10-23T08:53:05.708Z,100012.98
2022-10-23T08:55:38.922Z,100013.20
2022-10-23T08:58:18.953Z,100016.50
2022-10-23T09:00:49.872Z,100021.11
2022-10-23T09:03:18.780Z,100018.46
2022-10-23T09:06:23.616Z,100022.98
2022-10-23T09:09:29.698Z,100026.04
2022-10-23T09:12:21.389Z,100022.41
2022-10-23T09:15:13.148Z,100024.35
2022-10-23T09:17:44.525Z,100028.35
2022-10-23T09:20:26.838Z,100030.80
2022-10-23T09:23:00.825Z,100030.59
2022-10-23T09:25:37.123Z,100029.70
2022-10-23T09:28:06.620Z,100024.95
2022-10-23T09:30:42.177Z,100028.38
2022-10-23T09:33:22.589Z,100033.60
2022-10-23T09:36:12.677Z,100034.59
2022-10-23T09:38:46.911Z,100035.27
2022-10-23T09:41:36.002Z,100033.17
2022-10-23T09:44:20.612Z,100034.05
2022-10-23T09:46:54.101Z,100034.63
2022-10-23T09:49:23.986Z,100035.95
2022-10-23T09:52:30.890Z,100039.79
2022-10-23T09:55:18.772Z,100037.77
2022-10-23T09:57:47.843Z,100046.23
2022-10-23T10:00:26.547Z,100038.20
2022-10-23T10:03:03.621Z,100039.58
2022-10-23T10:06:27.308Z,100046.47
2022-10-23T10:09:16.507Z,100045.91
2022-10-23T10:11:52.261Z,100045.59
2022-10-23T10:14:45.317Z,100054.13
2022-10-23T10:17:35.504Z,100048.08
2022-10-23T10:20:27.963Z,100047.81
2022-10-23T10:23:42.187Z,100051.83
2022-10-23T10:26:22.835Z,100050.14
2022-10-23T10:29:08.682Z,100052.30
2022-10-23T10:32:06.322Z,100045.15
2022-10-23T10:35:05.334Z,100042.69
2022-10-23T10:38:29.404Z,100045.37
2022-10-23T10:41:19.812Z,100045.46
2022-10-23T10:44:32.632Z,100046.69
2022-10-23T10:47:22.596Z,100048.52
2022-10-23T10:50:07.894Z,100047.21
2022-10-23T10:53:28.245Z,100047.35
2022-10-23T10:56:00.265Z,100046.61
2022-10-23T10:58:46.038Z,100035.00
2022-10-23T11:01:28.773Z,100051.02
2022-10-23T11:04:13.254Z,100044.98
2022-10-23T11:06:46.242Z,100044.20
2022-10-23T11:09:21.769Z,100046.70
2022-10-23T11:11:50.528Z,100046.73
2022-10-23T11:14:25.540Z,100046.38
2022-10-23T11:17:12.273Z,100052.63
2022-10-23T11:20:06.234Z,100059.02
2022-10-23T11:22:50.790Z,100061.66
2022-10-23T11:25:50.092Z,100057.98
2022-10-23T11:28:35.673Z,100066.60
2022-10-23T11:31:39.653Z,100068.84
2022-10-23T11:34:31.316Z,100068.11
2022-10-23T11:37:01.946Z,100067.77
2022-10-23T11:39:36.977Z,100071.06
2022-10-23T11:42:10.578Z,100068.96
2022-10-23T11:44:50.332Z,100070.80
2022-10-23T11:47:40.436Z,100070.17
2022-10-23T11:50:08.954Z,100070.46
2022-10-23T11:53:18.353Z,100073.80
2022-10-23T11:56:11.815Z,100061.27
2022-10-23T11:58:51.974Z,100065.38
2022-10-23T12:01:44.488Z,100064.04
2022-10-23T12:04:13.000Z,100062.71
2022-10-23T12:06:55.788Z,100058.39
2022-10-23T12:09:31.848Z,100051.23
2022-10-23T12:12:09.551Z,100051.96
2022-10-23T12:14:51.853Z,100045.80
2022-10-23T12:17:23.325Z,100044.52
2022-10-23T12:20:04.266Z,100049.42
2022-10-23T12:22:49.861Z,100047.31
2022-10-23T12:25:45.598Z,100052.23
2022-10-23T12:28:43.244Z,100053.77
2022-10-23T12:31:36.012Z,100057.27
2022-10-23T12:34:36.634Z,100054.54
2022-10-23T12:37:45.062Z,100059.58
2022-10-23T12:40:13.631Z,100059.35
2022-10-23T12:42:52.236Z,100059.91
2022-10-23T12:45:40.233Z,100058.45
2022-10-23T12:48:21.652Z,100062.49
2022-10-23T12:50:53.239Z,100064.73
2022-10-23T12:53:23.402Z,100066.78
2022-10-23T12:58:35.285Z,100072.90
2022-10-23T13:01:07.432Z,100070.13
2022-10-23T13:03:38.429Z,100078.96
2022-10-23T13:06:07.818Z,100083.45
2022-10-23T13:08:47.098Z,100080.19
2022-10-23T13:11:31.987Z,100085.52
2022-10-23T13:14:02.406Z,100084.96
2022-10-23T13:16:30.783Z,100086.59
2022-10-23T13:18:59.148Z,100092.07
2022-10-23T13:21:29.883Z,100092.23
2022-10-23T13:23:58.466Z,100101.30
2022-10-23T13:26:45.451Z,100099.85
2022-10-23T13:29:34.864Z,100101.34
2022-10-23T13:32:22.709Z,100103.05
2022-10-23T13:35:04.145Z,100100.82
2022-10-23T13:40:28.164Z,100100.38
2022-10-23T13:42:57.461Z,100104.41
2022-10-23T13:45:26.804Z,100107.30
2022-10-23T13:47:55.057Z,100106.89
2022-10-23T13:50:23.418Z,100110.75
2022-10-23T13:52:53.018Z,100111.41
2022-10-23T13:55:26.630Z,100110.34
2022-10-23T13:57:54.902Z,100108.66
2022-10-23T14:00:23.284Z,100106.23
2022-10-23T14:02:51.695Z,100111.52
2022-10-23T14:05:20.359Z,100110.27
2022-10-23T14:07:48.739Z,100117.28
2022-10-23T14:10:17.036Z,100116.83
2022-10-23T14:12:45.743Z,100117.99
2022-10-23T14:15:14.488Z,100121.52
2022-10-23T14:17:42.805Z,100115.79
2022-10-23T14:20:11.827Z,100119.76
2022-10-23T14:22:40.270Z,100118.86
2022-10-23T14:25:09.012Z,100114.44
2022-10-23T14:27:37.389Z,100111.54
2022-10-23T14:30:06.785Z,100114.52
2022-10-23T14:32:35.188Z,100111.33
2022-10-23T14:35:04.153Z,100111.42
2022-10-23T14:37:34.125Z,100112.85
2022-10-23T14:40:04.607Z,100107.95
2022-10-23T14:42:34.636Z,100104.77
2022-10-23T14:45:03.425Z,100103.23
2022-10-23T14:47:32.409Z,100103.80
2022-10-23T14:50:00.796Z,100105.05
2022-10-23T14:52:29.174Z,100108.75
2022-10-23T14:54:57.533Z,100103.96
2022-10-23T14:57:25.776Z,100104.05
2022-10-23T14:59:54.018Z,100102.71
2022-10-23T15:02:22.483Z,100110.48
2022-10-23T15:04:50.758Z,100110.64
2022-10-23T15:07:19.124Z,100113.23
2022-10-23T15:09:47.501Z,100116.48
2022-10-23T15:12:15.778Z,100120.16
2022-10-23T15:14:44.243Z,100117.27
2022-10-23T15:17:15.685Z,100119.75
2022-10-23T15:19:44.314Z,100110.67
2022-10-23T15:22:12.726Z,100108.80
2022-10-23T15:24:41.067Z,100113.14
2022-10-23T15:29:43.334Z,100129.45
2022-10-23T15:32:13.355Z,100136.45
2022-10-23T15:34:43.074Z,100141.13
2022-10-23T15:37:12.153Z,100148.56
2022-10-23T15:39:40.498Z,100151.20
2022-10-23T15:42:10.881Z,100153.32
2022-10-23T15:44:40.435Z,100149.88
2022-10-23T15:47:08.664Z,100152.73
2022-10-23T15:49:37.349Z,100155.40
2022-10-23T15:52:06.214Z,100156.31
2022-10-23T15:54:35.475Z,100157.80
2022-10-23T15:57:04.302Z,100165.80
2022-10-23T15:59:33.053Z,100169.14
2022-10-23T16:02:01.426Z,100178.36
2022-10-23T16:04:30.346Z,100189.21
2022-10-23T16:06:58.650Z,100196.36
2022-10-23T16:09:27.118Z,100197.31
2022-10-23T16:11:55.493Z,100199.39
2022-10-23T16:14:24.342Z,100203.84
2022-10-23T16:16:52.675Z,100208.11
2022-10-23T16:19:21.034Z,100211.89
2022-10-23T16:21:49.417Z,100215.34
2022-10-23T16:24:17.735Z,100213.86
2022-10-23T16:26:50.579Z,100216.13
2022-10-23T16:29:22.171Z,100215.05
2022-10-23T16:31:50.987Z,100220.27
2022-10-23T16:34:19.968Z,100220.30
2022-10-23T16:36:48.853Z,100217.48
2022-10-23T16:39:58.095Z,100224.41
2022-10-23T16:42:45.802Z,100223.64
2022-10-23T16:45:26.346Z,100226.34
2022-10-23T16:47:55.581Z,100230.45
2022-10-23T16:50:23.925Z,100234.23
2022-10-23T16:52:55.473Z,100233.54
2022-10-23T16:55:24.175Z,100235.91
2022-10-23T16:57:52.541Z,100237.95
2022-10-23T17:00:22.864Z,100243.61
2022-10-23T17:02:51.105Z,100241.52
2022-10-23T17:05:19.405Z,100247.51
2022-10-23T17:07:47.694Z,100247.60
2022-10-23T17:10:16.245Z,100254.06
2022-10-23T17:12:44.654Z,100256.14
2022-10-23T17:15:12.929Z,100259.70
2022-10-23T17:17:41.510Z,100261.30
2022-10-23T17:20:11.744Z,100266.73
2022-10-23T17:22:40.112Z,100266.18
2022-10-23T17:25:09.637Z,100265.38
2022-10-23T17:27:37.898Z,100260.32
2022-10-23T17:30:12.375Z,100254.77
2022-10-23T17:32:41.534Z,100256.10
2022-10-23T17:35:10.696Z,100258.77
2022-10-23T17:37:39.090Z,100255.92
2022-10-23T17:40:08.624Z,100261.63
2022-10-23T17:42:36.766Z,100255.11
2022-10-23T17:45:06.027Z,100259.81
2022-10-23T17:47:34.537Z,100263.48
2022-10-23T17:50:03.644Z,100263.95
2022-10-23T17:52:32.826Z,100266.09
2022-10-23T17:55:01.130Z,100265.94
2022-10-23T17:57:29.478Z,100265.02
2022-10-23T17:59:57.733Z,100268.23
2022-10-23T18:02:27.064Z,100270.77
2022-10-23T18:04:55.433Z,100269.52
2022-10-23T18:07:25.891Z,100274.64
2022-10-23T18:09:54.549Z,100272.24
2022-10-23T18:12:23.181Z,100276.56
2022-10-23T18:14:51.455Z,100277.86
2022-10-23T18:17:19.769Z,100280.83
2022-10-23T18:19:51.535Z,100282.36
2022-10-23T18:22:19.816Z,100283.18
2022-10-23T18:24:48.210Z,100286.27
2022-10-23T18:27:16.470Z,100286.91
2022-10-23T18:29:45.149Z,100284.26
2022-10-23T18:32:13.446Z,100286.02
2022-10-23T18:34:41.929Z,100285.55
2022-10-23T18:37:10.408Z,100287.85
2022-10-23T18:39:38.887Z,100290.14
2022-10-23T18:42:07.270Z,100288.76
2022-10-23T18:44:35.658Z,100293.98
2022-10-23T18:47:04.287Z,100293.09
2022-10-23T18:49:32.810Z,100294.20
2022-10-23T18:52:01.188Z,100294.55
2022-10-23T18:54:30.057Z,100299.69
2022-10-23T18:56:58.355Z,100295.76
2022-10-23T18:59:26.720Z,100295.02
2022-10-23T19:01:55.328Z,100296.45
2022-10-23T19:04:23.902Z,100292.84
2022-10-23T19:06:52.364Z,100294.60
2022-10-23T19:09:21.187Z,100297.14
2022-10-23T19:11:49.649Z,100297.70
2022-10-23T19:14:18.130Z,100294.97
2022-10-23T19:16:58.625Z,100298.98
2022-10-23T19:19:41.901Z,100296.62
2022-10-23T19:22:12.881Z,100299.78
2022-10-23T19:24:47.280Z,100301.06
2022-10-23T19:27:15.643Z,100301.92
2022-10-23T19:29:46.866Z,100302.82
2022-10-23T19:32:15.582Z,100305.80
2022-10-23T19:34:44.357Z,100307.84
2022-10-23T19:39:46.073Z,100308.38
2022-10-23T19:42:14.718Z,100312.98
2022-10-23T19:44:42.969Z,100313.11
2022-10-23T19:47:11.388Z,100311.92
2022-10-23T19:49:39.777Z,100313.10
2022-10-23T19:52:08.060Z,100311.98
2022-10-23T19:54:37.956Z,100310.05
2022-10-23T19:57:06.196Z,100313.14
2022-10-23T19:59:34.918Z,100316.48
2022-10-23T20:02:03.715Z,100316.23
2022-10-23T20:04:32.193Z,100315.70
2022-10-23T20:07:00.709Z,100321.19
2022-10-23T20:09:29.437Z,100323.04
2022-10-23T20:11:57.830Z,100323.98
2022-10-23T20:14:26.662Z,100320.33
2022-10-23T20:16:56.103Z,100318.27
2022-10-23T20:19:24.485Z,100319.85
2022-10-23T20:21:52.886Z,100318.95
2022-10-23T20:24:22.060Z,100318.29
2022-10-23T20:26:54.643Z,100317.79
2022-10-23T20:29:24.993Z,100322.13
2022-10-23T20:31:54.458Z,100320.95
2022-10-23T20:34:22.659Z,100320.20
2022-10-23T20:36:50.939Z,100323.97
2022-10-23T20:39:24.664Z,100324.63
2022-10-23T20:41:55.472Z,100331.48
2022-10-23T20:44:24.320Z,100331.70
2022-10-23T20:46:53.250Z,100330.51
2022-10-23T20:49:23.134Z,100329.00
2022-10-23T20:51:56.858Z,100329.75
2022-10-23T20:54:27.705Z,100326.92
2022-10-23T20:56:59.641Z,100324.26
2022-10-23T20:59:27.985Z,100323.75
2022-10-23T21:01:57.401Z,100324.09
2022-10-23T21:04:28.186Z,100330.75
2022-10-23T21:07:10.077Z,100323.24
2022-10-23T21:09:40.327Z,100324.19
2022-10-23T21:12:09.584Z,100325.15
2022-10-23T21:14:38.484Z,100319.36
2022-10-23T21:17:08.590Z,100321.02
2022-10-23T21:19:37.096Z,100323.60
2022-10-23T21:22:05.375Z,100323.38
2022-10-23T21:24:33.639Z,100327.60
2022-10-23T21:27:02.415Z,100328.23
2022-10-23T21:29:30.805Z,100329.21
2022-10-23T21:32:03.989Z,100324.39
2022-10-23T21:34:32.371Z,100324.96
2022-10-23T21:37:17.882Z,100324.95
2022-10-23T21:39:46.529Z,100327.72
2022-10-23T21:42:15.564Z,100324.73
2022-10-23T21:44:44.123Z,100320.92
2022-10-23T21:47:12.366Z,100325.25
2022-10-23T21:49:40.661Z,100321.21
2022-10-23T21:52:08.945Z,100321.48
2022-10-23T21:54:37.294Z,100321.66
2022-10-23T21:57:05.794Z,100320.29
2022-10-23T21:59:35.950Z,100317.59
2022-10-23T22:02:04.947Z,100317.59
2022-10-23T22:04:33.411Z,100318.34
2022-10-23T22:07:03.158Z,100319.23
2022-10-23T22:09:33.615Z,100313.48
2022-10-23T22:12:02.127Z,100315.11
2022-10-23T22:14:31.101Z,100312.22
2022-10-23T22:16:59.581Z,100312.16
2022-10-23T22:19:27.972Z,100319.75
2022-10-23T22:21:56.350Z,100322.30
2022-10-23T22:24:25.024Z,100319.83
2022-10-23T22:26:56.676Z,100321.33
2022-10-23T22:29:29.552Z,100322.89
2022-10-23T22:31:58.722Z,100324.17
2022-10-23T22:37:18.745Z,100322.73
2022-10-23T22:39:52.337Z,100320.94
2022-10-23T22:42:20.941Z,100318.64
2022-10-23T22:44:49.337Z,100323.23
2022-10-23T22:47:17.715Z,100320.91
2022-10-23T22:49:46.080Z,100312.42
2022-10-23T22:52:14.471Z,100309.95
2022-10-23T22:54:42.836Z,100307.02
2022-10-23T22:57:11.229Z,100304.67
2022-10-23T22:59:39.521Z,100302.02
2022-10-23T23:02:08.601Z,100301.61
2022-10-23T23:04:38.876Z,100300.77
2022-10-23T23:07:11.607Z,100301.98
2022-10-23T23:09:43.098Z,100300.54
2022-10-23T23:12:14.307Z,100302.76
2022-10-23T23:14:43.273Z,100302.99
2022-10-23T23:17:12.374Z,100308.02
2022-10-23T23:19:40.869Z,100308.67
2022-10-23T23:22:09.324Z,100310.73
2022-10-23T23:24:37.918Z,100312.86
2022-10-23T23:27:06.208Z,100312.07
2022-10-23T23:29:34.689Z,100307.05
2022-10-23T23:32:02.939Z,100309.81
2022-10-23T23:34:31.341Z,100315.99
2022-10-23T23:37:00.701Z,100313.19
2022-10-23T23:39:29.214Z,100315.57
2022-10-23T23:41:57.794Z,100313.36
2022-10-23T23:44:26.028Z,100311.14
2022-10-23T23:46:54.459Z,100308.64
2022-10-23T23:49:23.148Z,100305.89
2022-10-23T23:51:51.814Z,100308.95
2022-10-23T23:54:20.212Z,100308.27
2022-10-23T23:56:48.601Z,100308.96
2022-10-23T23:59:16.950Z,100313.52
